Time;durP1;ratioP1;P1;durP2;ratioP2;P2;SDS_P1;SDS_P2;PMS_P1;PMS_P2;Temp;Humidity;BMP_temperature;BMP_pressure;BME280_temperature;BME280_humidity;BME280_pressure;Samples;Min_cycle;Max_cycle;Signal;HPM_P1;HPM_P2
2024/01/09 00:01:12;;;;;;;16.23;6.57;;;-2.90;99.90;;;;;;5115586;28;20035;-75
2024/01/09 00:03:38;;;;;;;17.10;7.07;;;-3.00;99.90;;;;;;5097595;28;20031;-75
2024/01/09 00:06:04;;;;;;;13.23;5.60;;;-2.90;99.90;;;;;;5097135;28;20410;-75
2024/01/09 00:08:29;;;;;;;13.40;5.63;;;-2.90;99.90;;;;;;5097555;28;20019;-74
2024/01/09 00:10:58;;;;;;;14.80;6.00;;;-2.90;99.90;;;;;;5096839;28;20035;-75
2024/01/09 00:13:23;;;;;;;12.97;6.23;;;-3.00;99.90;;;;;;5097828;28;20020;-74
2024/01/09 00:15:49;;;;;;;13.50;6.13;;;-3.00;99.90;;;;;;5097062;28;20012;-82
2024/01/09 00:18:14;;;;;;;17.20;6.40;;;-3.00;99.90;;;;;;5097374;28;20027;-74
2024/01/09 00:20:40;;;;;;;14.67;6.33;;;-3.00;99.90;;;;;;5097474;28;20027;-75
2024/01/09 00:23:05;;;;;;;14.77;6.73;;;-3.00;99.90;;;;;;5097026;28;20157;-75
2024/01/09 00:25:31;;;;;;;14.57;6.17;;;-3.00;99.90;;;;;;5097397;28;20023;-75
2024/01/09 00:27:57;;;;;;;16.07;6.30;;;-3.00;99.90;;;;;;5096605;28;20456;-75
2024/01/09 00:30:23;;;;;;;15.87;6.33;;;-3.00;99.90;;;;;;5097255;28;20020;-75
2024/01/09 00:32:49;;;;;;;13.80;5.93;;;-3.00;99.90;;;;;;5097137;28;20102;-82
2024/01/09 00:35:15;;;;;;;14.67;6.70;;;-3.00;99.90;;;;;;5115036;28;20019;-75
2024/01/09 00:37:41;;;;;;;14.60;6.70;;;-3.00;99.90;;;;;;5096830;28;20023;-74
2024/01/09 00:40:08;;;;;;;11.50;5.47;;;-3.10;99.90;;;;;;5095921;28;20054;-74
2024/01/09 00:42:33;;;;;;;12.53;6.30;;;-3.10;99.90;;;;;;5115732;28;20067;-75
2024/01/09 00:45:00;;;;;;;15.93;6.17;;;-3.10;99.90;;;;;;5114793;28;20050;-75
2024/01/09 00:47:27;;;;;;;13.80;6.40;;;-3.10;99.90;;;;;;5114940;28;20432;-75
2024/01/09 00:49:52;;;;;;;13.73;5.87;;;-3.10;99.90;;;;;;5114712;28;20015;-81
2024/01/09 00:52:18;;;;;;;15.83;6.20;;;-3.10;99.90;;;;;;5096563;28;20472;-75
2024/01/09 00:54:45;;;;;;;15.10;6.70;;;-3.20;99.90;;;;;;5115354;28;20012;-75
2024/01/09 00:57:11;;;;;;;13.77;5.70;;;-3.10;99.90;;;;;;5114437;28;20139;-75
2024/01/09 00:59:37;;;;;;;13.50;6.10;;;-3.10;99.90;;;;;;5096620;28;20444;-75
2024/01/09 01:02:02;;;;;;;15.93;6.30;;;-3.10;99.90;;;;;;5114373;28;20027;-75
2024/01/09 01:04:28;;;;;;;14.73;6.17;;;-3.10;99.90;;;;;;5096728;28;20051;-75
2024/01/09 01:06:54;;;;;;;16.43;6.20;;;-3.10;99.90;;;;;;5114641;28;20106;-75
2024/01/09 01:09:19;;;;;;;11.47;5.57;;;-3.10;99.90;;;;;;5096423;28;20360;-75
2024/01/09 01:11:45;;;;;;;16.47;5.80;;;-3.10;99.90;;;;;;5114624;28;20092;-74
2024/01/09 01:14:11;;;;;;;15.97;6.63;;;-3.20;99.90;;;;;;5095645;28;20027;-75
2024/01/09 01:16:36;;;;;;;12.73;6.53;;;-3.20;99.90;;;;;;5096107;28;20031;-74
2024/01/09 01:19:02;;;;;;;14.20;6.73;;;-3.20;99.90;;;;;;5095759;28;20038;-75
2024/01/09 01:21:28;;;;;;;14.97;6.03;;;-3.20;99.90;;;;;;5096103;28;20521;-75
2024/01/09 01:23:53;;;;;;;16.07;6.73;;;-3.20;99.90;;;;;;5096028;28;20016;-82
2024/01/09 01:26:19;;;;;;;15.53;6.70;;;-3.20;99.90;;;;;;5096144;28;20015;-74
2024/01/09 01:28:45;;;;;;;19.40;6.87;;;-3.20;99.90;;;;;;5095964;28;20030;-75
2024/01/09 01:31:10;;;;;;;15.67;6.57;;;-3.30;99.90;;;;;;5095436;28;20024;-75
2024/01/09 01:33:36;;;;;;;16.07;6.63;;;-3.30;99.90;;;;;;5096018;28;20452;-75
2024/01/09 01:36:01;;;;;;;18.87;7.13;;;-3.30;99.90;;;;;;5095668;28;20019;-75
2024/01/09 01:38:27;;;;;;;14.70;6.37;;;-3.30;99.90;;;;;;5096068;28;20019;-74
2024/01/09 01:40:53;;;;;;;14.47;6.87;;;-3.30;99.90;;;;;;5092064;28;20051;-86
2024/01/09 01:43:18;;;;;;;16.10;6.53;;;-3.30;99.90;;;;;;5092218;28;20027;-75
2024/01/09 01:45:44;;;;;;;15.53;6.43;;;-3.30;99.90;;;;;;5092412;28;20032;-75
2024/01/09 01:48:10;;;;;;;14.87;6.97;;;-3.30;99.90;;;;;;5092053;28;20027;-74
2024/01/09 01:50:37;;;;;;;13.23;6.10;;;-3.30;99.90;;;;;;5091663;28;20035;-75
2024/01/09 01:53:05;;;;;;;19.90;6.57;;;-3.20;99.90;;;;;;5091915;28;20020;-75
2024/01/09 01:55:32;;;;;;;15.40;6.73;;;-3.30;99.90;;;;;;5093928;28;20070;-75
2024/01/09 01:57:59;;;;;;;14.53;5.77;;;-3.30;99.90;;;;;;5093120;28;20095;-75
2024/01/09 02:00:26;;;;;;;18.07;6.80;;;-3.30;99.90;;;;;;5092506;28;20027;-74
2024/01/09 02:02:53;;;;;;;18.83;7.17;;;-3.30;99.90;;;;;;5092192;28;20016;-75
2024/01/09 02:05:23;;;;;;;16.43;6.50;;;-3.30;99.90;;;;;;5091804;28;20024;-75
2024/01/09 02:07:53;;;;;;;14.13;6.50;;;-3.40;99.90;;;;;;5091856;28;20022;-75
2024/01/09 02:10:19;;;;;;;15.07;5.87;;;-3.40;99.90;;;;;;5093159;28;20035;-74
2024/01/09 02:12:46;;;;;;;13.77;6.13;;;-3.40;99.90;;;;;;5092137;28;20031;-75
2024/01/09 02:15:11;;;;;;;19.50;7.00;;;-3.40;99.90;;;;;;5091531;28;20161;-75
2024/01/09 02:17:38;;;;;;;14.33;6.60;;;-3.40;99.90;;;;;;5093216;28;20468;-74
2024/01/09 02:20:06;;;;;;;15.33;5.97;;;-3.40;99.90;;;;;;5092706;28;20016;-75
2024/01/09 02:22:31;;;;;;;18.40;6.90;;;-3.40;99.90;;;;;;5091692;28;20024;-75
2024/01/09 02:24:57;;;;;;;14.23;6.83;;;-3.40;99.90;;;;;;5091484;28;20093;-83
2024/01/09 02:27:38;;;;;;;13.73;6.43;;;-3.40;99.90;;;;;;5092991;28;20095;-75
2024/01/09 02:30:05;;;;;;;9.27;4.13;;;-3.40;99.90;;;;;;5092728;28;20086;-75
2024/01/09 02:32:32;;;;;;;15.23;6.37;;;-3.40;99.90;;;;;;5092060;28;20047;-75
2024/01/09 02:34:59;;;;;;;19.67;6.70;;;-3.40;99.90;;;;;;5091353;28;20365;-83
2024/01/09 02:37:24;;;;;;;15.37;6.63;;;-3.40;99.90;;;;;;5092906;28;20024;-75
2024/01/09 02:39:50;;;;;;;17.70;6.73;;;-3.40;99.90;;;;;;5091682;28;20406;-74
2024/01/09 02:42:16;;;;;;;15.20;6.33;;;-3.40;99.90;;;;;;5094027;28;20073;-74
2024/01/09 02:44:41;;;;;;;17.00;6.60;;;-3.30;99.90;;;;;;5094640;28;20016;-74
2024/01/09 02:47:07;;;;;;;14.97;5.93;;;-3.40;99.90;;;;;;5094522;28;20016;-75
2024/01/09 02:49:32;;;;;;;16.63;6.90;;;-3.30;99.90;;;;;;5113081;28;20020;-75
2024/01/09 02:51:59;;;;;;;17.77;7.20;;;-3.30;99.90;;;;;;5094379;28;20023;-84
2024/01/09 02:54:24;;;;;;;13.10;6.13;;;-3.40;99.90;;;;;;5094952;28;20506;-75
2024/01/09 02:56:50;;;;;;;15.70;6.30;;;-3.40;99.90;;;;;;5094626;28;20019;-75
2024/01/09 02:59:16;;;;;;;15.87;6.53;;;-3.40;99.90;;;;;;5112395;28;20230;-75
2024/01/09 03:01:42;;;;;;;13.87;6.17;;;-3.30;99.90;;;;;;5094332;28;20403;-75
2024/01/09 03:04:07;;;;;;;15.70;6.30;;;-3.40;99.90;;;;;;5097830;28;20022;-75
2024/01/09 03:06:33;;;;;;;15.47;6.23;;;-3.40;99.90;;;;;;5098805;28;20031;-75
2024/01/09 03:08:58;;;;;;;14.97;6.53;;;-3.40;99.90;;;;;;5116396;28;20020;-75
2024/01/09 03:11:24;;;;;;;14.53;5.90;;;-3.40;99.90;;;;;;5098399;28;20031;-75
2024/01/09 03:13:49;;;;;;;17.10;6.57;;;-3.50;99.90;;;;;;5098347;28;20463;-74
2024/01/09 03:16:15;;;;;;;13.23;6.20;;;-3.50;99.90;;;;;;5115865;28;20028;-74
2024/01/09 03:18:41;;;;;;;13.47;5.80;;;-3.50;99.90;;;;;;5098156;28;20406;-74
2024/01/09 03:21:07;;;;;;;17.23;6.33;;;-3.40;99.90;;;;;;5097949;28;20482;-75
2024/01/09 03:23:33;;;;;;;15.07;6.57;;;-3.40;99.90;;;;;;5116931;28;20098;-75
2024/01/09 03:25:59;;;;;;;11.13;5.43;;;-3.40;99.90;;;;;;5098285;28;20106;-82
2024/01/09 03:28:25;;;;;;;18.27;6.70;;;-3.40;99.90;;;;;;5098093;28;20360;-75
2024/01/09 03:30:51;;;;;;;14.57;6.03;;;-3.40;99.90;;;;;;5098245;28;20410;-74
2024/01/09 03:33:16;;;;;;;15.00;5.47;;;-3.40;99.90;;;;;;5097872;28;20023;-74
2024/01/09 03:35:42;;;;;;;13.27;6.33;;;-3.40;99.90;;;;;;5116613;28;20019;-74
2024/01/09 03:38:08;;;;;;;17.90;6.97;;;-3.40;99.90;;;;;;5097355;28;20023;-75
2024/01/09 03:40:35;;;;;;;14.10;5.97;;;-3.50;99.90;;;;;;5097501;28;20040;-75
2024/01/09 03:43:01;;;;;;;13.20;5.50;;;-3.50;99.90;;;;;;5097716;28;20042;-84
2024/01/09 03:45:26;;;;;;;15.70;6.60;;;-3.50;99.90;;;;;;5097511;28;20019;-74
2024/01/09 03:47:52;;;;;;;16.53;6.00;;;-3.50;99.90;;;;;;5097524;28;20416;-75
2024/01/09 03:50:18;;;;;;;12.33;6.17;;;-3.50;99.90;;;;;;5097040;28;20027;-75
2024/01/09 03:52:43;;;;;;;14.47;5.77;;;-3.50;99.90;;;;;;5097904;28;20060;-74
2024/01/09 03:55:09;;;;;;;14.37;6.37;;;-3.50;99.90;;;;;;5097361;28;20110;-75
2024/01/09 03:57:35;;;;;;;15.83;5.50;;;-3.50;99.90;;;;;;5116001;28;20038;-74
2024/01/09 04:00:00;;;;;;;13.63;6.03;;;-3.50;99.90;;;;;;5115666;28;20020;-84
2024/01/09 04:02:26;;;;;;;14.63;6.00;;;-3.50;99.90;;;;;;5097234;28;20095;-75
2024/01/09 04:04:52;;;;;;;16.67;6.23;;;-3.50;99.90;;;;;;5116033;28;20049;-74
2024/01/09 04:07:17;;;;;;;13.43;5.90;;;-3.50;99.90;;;;;;5096930;28;20055;-75
2024/01/09 04:09:43;;;;;;;10.73;5.47;;;-3.50;99.90;;;;;;5097607;28;20020;-75
2024/01/09 04:12:08;;;;;;;12.60;5.47;;;-3.60;99.90;;;;;;5096821;28;20032;-75
2024/01/09 04:14:34;;;;;;;15.33;5.93;;;-3.50;99.90;;;;;;5097193;28;20043;-75
2024/01/09 04:17:00;;;;;;;13.73;6.13;;;-3.50;99.90;;;;;;5115567;28;20030;-75
2024/01/09 04:19:25;;;;;;;14.43;5.63;;;-3.50;99.90;;;;;;5096492;28;20020;-74
2024/01/09 04:21:51;;;;;;;13.03;5.40;;;-3.50;99.90;;;;;;5097117;28;20024;-75
2024/01/09 04:24:16;;;;;;;12.73;5.13;;;-3.50;99.90;;;;;;5096705;28;20031;-75
2024/01/09 04:26:42;;;;;;;13.73;6.07;;;-3.50;99.90;;;;;;5115356;28;20096;-75
2024/01/09 04:29:07;;;;;;;12.43;5.20;;;-3.60;99.90;;;;;;5096333;28;20073;-75
2024/01/09 04:31:33;;;;;;;16.73;5.50;;;-3.60;99.90;;;;;;5096925;28;20024;-77
2024/01/09 04:33:58;;;;;;;12.17;5.87;;;-3.60;99.90;;;;;;5096550;28;20027;-75
2024/01/09 04:36:24;;;;;;;13.23;6.17;;;-3.70;99.90;;;;;;5114443;28;20429;-75
2024/01/09 04:38:50;;;;;;;12.17;5.93;;;-3.60;99.90;;;;;;5114845;28;20034;-74
2024/01/09 04:41:16;;;;;;;11.53;5.30;;;-3.60;99.90;;;;;;5095642;28;20132;-75
2024/01/09 04:43:45;;;;;;;17.23;6.13;;;-3.60;99.90;;;;;;5114925;28;20048;-74
2024/01/09 04:46:10;;;;;;;13.67;5.80;;;-3.60;99.90;;;;;;5096257;28;20432;-75
2024/01/09 04:48:36;;;;;;;13.93;5.97;;;-3.60;99.90;;;;;;5096611;28;20046;-75
2024/01/09 04:51:01;;;;;;;10.87;5.67;;;-3.60;99.90;;;;;;5096765;28;20035;-75
2024/01/09 04:53:27;;;;;;;13.57;6.70;;;-3.60;99.90;;;;;;5096108;28;20028;-74
2024/01/09 04:55:52;;;;;;;11.23;5.40;;;-3.60;99.90;;;;;;5114544;28;20031;-74
2024/01/09 04:58:18;;;;;;;14.80;5.90;;;-3.70;99.90;;;;;;5113703;28;20064;-75
2024/01/09 05:00:44;;;;;;;16.57;6.70;;;-3.60;99.90;;;;;;5096200;28;20035;-74
2024/01/09 05:03:09;;;;;;;16.50;5.67;;;-3.60;99.90;;;;;;5113899;28;20020;-75
2024/01/09 05:05:35;;;;;;;11.97;5.67;;;-3.60;99.90;;;;;;5096672;28;20425;-75
2024/01/09 05:08:00;;;;;;;13.13;6.00;;;-3.60;99.90;;;;;;5096377;28;20026;-75
2024/01/09 05:10:26;;;;;;;13.73;6.03;;;-3.60;99.90;;;;;;5114084;28;20169;-75
2024/01/09 05:12:52;;;;;;;15.67;5.87;;;-3.70;99.90;;;;;;5096562;28;20023;-75
2024/01/09 05:15:17;;;;;;;13.87;5.97;;;-3.60;99.90;;;;;;5095669;28;20110;-75
2024/01/09 05:17:43;;;;;;;15.77;6.17;;;-3.70;99.90;;;;;;5114696;28;20027;-75
2024/01/09 05:20:09;;;;;;;13.03;5.63;;;-3.60;99.90;;;;;;5095769;28;20023;-81
2024/01/09 05:22:35;;;;;;;15.07;5.50;;;-3.60;99.90;;;;;;5096058;28;20059;-75
2024/01/09 05:25:03;;;;;;;14.27;5.50;;;-3.60;99.90;;;;;;5095506;28;20058;-75
2024/01/09 05:27:29;;;;;;;12.23;5.63;;;-3.60;99.90;;;;;;5095477;28;20023;-75
2024/01/09 05:29:54;;;;;;;13.03;5.63;;;-3.60;99.90;;;;;;5096034;28;20016;-75
2024/01/09 05:32:20;;;;;;;14.27;5.70;;;-3.60;99.90;;;;;;5113962;28;20023;-75
2024/01/09 05:34:46;;;;;;;16.73;6.40;;;-3.60;99.90;;;;;;5095868;28;20428;-74
2024/01/09 05:37:11;;;;;;;15.73;6.60;;;-3.60;99.90;;;;;;5095248;28;20027;-75
2024/01/09 05:39:37;;;;;;;15.07;5.60;;;-3.60;99.90;;;;;;5096252;28;20114;-75
2024/01/09 05:42:03;;;;;;;16.53;6.53;;;-3.60;99.90;;;;;;5095599;28;20043;-75
2024/01/09 05:44:28;;;;;;;15.17;5.80;;;-3.60;99.90;;;;;;5095470;28;20395;-75
2024/01/09 05:46:54;;;;;;;12.77;6.23;;;-3.60;99.90;;;;;;5113605;28;20473;-75
2024/01/09 05:49:19;;;;;;;14.33;5.80;;;-3.70;99.90;;;;;;5095494;28;20024;-75
2024/01/09 05:51:45;;;;;;;19.17;6.40;;;-3.60;99.90;;;;;;5113772;28;20475;-75
2024/01/09 05:54:11;;;;;;;16.97;5.83;;;-3.60;99.90;;;;;;5113621;28;20022;-78
2024/01/09 05:56:37;;;;;;;14.50;5.83;;;-3.60;99.90;;;;;;5113689;28;20372;-75
2024/01/09 05:59:03;;;;;;;16.10;6.10;;;-3.70;99.90;;;;;;5095426;28;20161;-75
2024/01/09 06:01:28;;;;;;;14.37;5.93;;;-3.70;99.90;;;;;;5094961;28;20275;-75
2024/01/09 06:03:54;;;;;;;14.63;6.57;;;-3.70;99.90;;;;;;5095652;28;20453;-75
2024/01/09 06:06:20;;;;;;;14.90;5.47;;;-3.70;99.90;;;;;;5095351;28;20020;-75
2024/01/09 06:08:46;;;;;;;13.07;5.00;;;-3.70;99.90;;;;;;5095724;28;20115;-75
2024/01/09 06:11:11;;;;;;;14.50;6.40;;;-3.70;99.90;;;;;;5095026;28;20127;-82
2024/01/09 06:13:37;;;;;;;14.70;6.10;;;-3.70;99.90;;;;;;5095814;28;20016;-75
2024/01/09 06:16:02;;;;;;;19.27;6.63;;;-3.70;99.90;;;;;;5113558;28;20080;-75
2024/01/09 06:18:28;;;;;;;14.90;5.87;;;-3.80;99.90;;;;;;5094708;28;20112;-75
2024/01/09 06:20:54;;;;;;;14.53;6.23;;;-3.70;99.90;;;;;;5095477;28;20032;-75
2024/01/09 06:23:19;;;;;;;14.67;5.73;;;-3.70;99.90;;;;;;5113320;28;20122;-75
2024/01/09 06:25:45;;;;;;;16.37;6.20;;;-3.70;99.90;;;;;;5095135;28;20049;-74
2024/01/09 06:28:10;;;;;;;16.60;6.93;;;-3.70;99.90;;;;;;5095180;28;20440;-79
2024/01/09 06:30:36;;;;;;;12.63;5.30;;;-3.70;99.90;;;;;;5095335;28;20012;-75
2024/01/09 06:33:02;;;;;;;17.33;6.03;;;-3.80;99.90;;;;;;5095418;28;20064;-74
2024/01/09 06:35:28;;;;;;;15.67;5.73;;;-3.80;99.90;;;;;;5094918;28;20467;-75
2024/01/09 06:37:53;;;;;;;14.03;5.37;;;-3.70;99.90;;;;;;5113364;28;20023;-75
2024/01/09 06:40:20;;;;;;;11.70;5.53;;;-3.80;99.90;;;;;;5094593;28;20047;-74
2024/01/09 06:42:46;;;;;;;15.30;5.80;;;-3.70;99.90;;;;;;5113420;28;20034;-74
2024/01/09 06:45:14;;;;;;;14.87;6.83;;;-3.70;99.90;;;;;;5094459;28;20364;-75
2024/01/09 06:47:40;;;;;;;15.87;6.53;;;-3.70;99.90;;;;;;5094889;28;20448;-75
2024/01/09 06:50:06;;;;;;;17.67;6.10;;;-3.70;99.90;;;;;;5094776;28;20020;-76
2024/01/09 06:52:32;;;;;;;15.37;5.93;;;-3.70;99.90;;;;;;5092240;28;20076;-75
2024/01/09 06:54:57;;;;;;;14.10;6.13;;;-3.70;99.90;;;;;;5094716;28;20372;-76
2024/01/09 06:57:24;;;;;;;13.13;5.60;;;-3.60;99.90;;;;;;5094465;28;20023;-75
2024/01/09 06:59:51;;;;;;;12.90;5.50;;;-3.60;99.90;;;;;;5113210;28;20016;-74
2024/01/09 07:02:16;;;;;;;12.77;5.60;;;-3.60;99.90;;;;;;5093730;28;20469;-75
2024/01/09 07:04:42;;;;;;;18.00;6.47;;;-3.60;99.90;;;;;;5112777;28;20050;-75
2024/01/09 07:07:07;;;;;;;14.77;6.10;;;-3.60;99.90;;;;;;5113005;28;20020;-75
2024/01/09 07:09:33;;;;;;;12.77;5.87;;;-3.60;99.90;;;;;;5112661;28;20020;-75
2024/01/09 07:11:59;;;;;;;12.53;5.63;;;-3.60;99.90;;;;;;5094685;28;20038;-75
2024/01/09 07:14:24;;;;;;;21.73;6.30;;;-3.60;99.90;;;;;;5094043;28;20024;-75
2024/01/09 07:16:51;;;;;;;9.43;5.03;;;-3.60;99.90;;;;;;5094729;28;20058;-75
2024/01/09 07:19:17;;;;;;;16.47;5.80;;;-3.60;99.90;;;;;;5112425;28;20471;-76
2024/01/09 07:21:42;;;;;;;15.53;6.30;;;-3.50;99.90;;;;;;5094614;28;20024;-75
2024/01/09 07:24:08;;;;;;;13.97;5.53;;;-3.60;99.90;;;;;;5094497;28;20034;-75
2024/01/09 07:26:40;;;;;;;17.37;6.40;;;-3.50;99.90;;;;;;5112251;28;20027;-75
2024/01/09 07:29:05;;;;;;;15.50;5.88;;;-3.50;99.90;;;;;;5094397;28;20039;-75
2024/01/09 07:31:31;;;;;;;13.00;5.23;;;-3.50;99.90;;;;;;5094119;28;20027;-75
2024/01/09 07:33:56;;;;;;;14.67;5.53;;;-3.50;99.90;;;;;;5112278;28;20453;-75
2024/01/09 07:36:22;;;;;;;13.90;5.50;;;-3.50;99.90;;;;;;5093910;28;20020;-75
2024/01/09 07:38:47;;;;;;;13.40;6.27;;;-3.50;99.90;;;;;;5112345;28;20081;-75
2024/01/09 07:41:13;;;;;;;17.77;5.90;;;-3.50;99.90;;;;;;5090100;28;20396;-80
2024/01/09 07:43:39;;;;;;;15.87;6.30;;;-3.60;99.90;;;;;;5091055;28;20024;-75
2024/01/09 07:46:04;;;;;;;16.47;5.67;;;-3.50;99.90;;;;;;5091007;28;20472;-75
2024/01/09 07:48:30;;;;;;;14.90;5.70;;;-3.50;99.90;;;;;;5092623;28;20419;-75
2024/01/09 07:50:56;;;;;;;15.53;6.37;;;-3.50;99.90;;;;;;5094327;28;20028;-75
2024/01/09 07:53:22;;;;;;;16.50;6.13;;;-3.50;99.90;;;;;;5093994;28;20132;-75
2024/01/09 07:55:48;;;;;;;13.67;6.13;;;-3.50;99.90;;;;;;5095497;28;20012;-75
2024/01/09 07:58:13;;;;;;;15.10;5.73;;;-3.40;99.90;;;;;;5095236;28;20387;-89
2024/01/09 08:00:39;;;;;;;13.60;5.67;;;-3.40;99.90;;;;;;5094473;28;20016;-75
2024/01/09 08:03:05;;;;;;;14.27;5.77;;;-3.40;99.90;;;;;;5095561;28;20043;-75
2024/01/09 08:05:31;;;;;;;15.43;6.50;;;-3.40;99.90;;;;;;5094118;28;20119;-75
2024/01/09 08:07:57;;;;;;;14.33;6.07;;;-3.40;99.90;;;;;;5095761;28;20063;-75
2024/01/09 08:10:22;;;;;;;15.67;5.90;;;-3.30;99.90;;;;;;5093887;28;20526;-75
2024/01/09 08:12:48;;;;;;;13.57;5.40;;;-3.30;99.90;;;;;;5095605;28;20349;-75
2024/01/09 08:15:14;;;;;;;14.97;5.70;;;-3.30;99.90;;;;;;5094539;28;20449;-75
2024/01/09 08:17:40;;;;;;;14.90;6.10;;;-3.20;99.90;;;;;;5095222;28;20030;-75
2024/01/09 08:20:06;;;;;;;11.33;5.47;;;-3.20;99.90;;;;;;5094300;28;20024;-75
2024/01/09 08:22:32;;;;;;;14.47;6.20;;;-3.20;99.90;;;;;;5093688;28;20036;-75
2024/01/09 08:24:57;;;;;;;14.13;6.00;;;-3.20;99.90;;;;;;5094220;28;20027;-75
2024/01/09 08:27:23;;;;;;;14.77;6.00;;;-3.10;99.90;;;;;;5093543;28;20449;-75
2024/01/09 08:29:48;;;;;;;14.37;5.53;;;-3.10;99.90;;;;;;5094208;28;20342;-75
2024/01/09 08:32:16;;;;;;;15.00;6.10;;;-3.00;99.90;;;;;;5095105;28;20461;-75
2024/01/09 08:34:42;;;;;;;16.33;5.80;;;-3.00;99.90;;;;;;5094062;28;20056;-75
2024/01/09 08:37:07;;;;;;;14.57;5.63;;;-3.00;99.90;;;;;;5093987;28;20039;-75
2024/01/09 08:39:33;;;;;;;14.70;5.60;;;-3.00;99.90;;;;;;5093586;28;20470;-75
2024/01/09 08:41:58;;;;;;;13.60;5.63;;;-3.00;99.90;;;;;;5112291;28;20040;-75
2024/01/09 08:44:26;;;;;;;14.20;5.83;;;-3.00;99.90;;;;;;5096472;28;20038;-75
2024/01/09 08:46:51;;;;;;;15.43;5.37;;;-3.00;99.90;;;;;;5097283;28;20088;-75
2024/01/09 08:49:17;;;;;;;15.33;5.93;;;-3.00;99.90;;;;;;5096811;28;20456;-87
2024/01/09 08:51:42;;;;;;;16.10;5.33;;;-3.00;99.90;;;;;;5115367;28;20034;-75
2024/01/09 08:54:08;;;;;;;13.60;5.80;;;-3.00;99.90;;;;;;5097088;28;20059;-75
2024/01/09 08:56:34;;;;;;;15.17;5.90;;;-3.00;99.90;;;;;;5114680;28;20027;-75
2024/01/09 08:59:00;;;;;;;13.53;5.87;;;-2.90;99.90;;;;;;5115028;28;20026;-75
2024/01/09 09:01:26;;;;;;;13.90;5.77;;;-2.90;99.90;;;;;;5096258;28;20040;-75
2024/01/09 09:03:52;;;;;;;13.33;5.70;;;-2.90;99.90;;;;;;5096801;28;20513;-75
2024/01/09 09:06:18;;;;;;;15.00;6.37;;;-2.90;99.90;;;;;;5114999;28;20024;-89
2024/01/09 09:08:44;;;;;;;12.57;6.13;;;-2.90;99.90;;;;;;5096649;28;20375;-75
2024/01/09 09:11:14;;;;;;;13.83;5.87;;;-2.80;99.90;;;;;;5096374;28;20539;-75
2024/01/09 09:13:43;;;;;;;11.10;5.37;;;-2.80;99.90;;;;;;5096158;28;20055;-75
2024/01/09 09:16:08;;;;;;;12.83;5.33;;;-2.70;99.90;;;;;;5114803;28;20027;-75
2024/01/09 09:18:34;;;;;;;15.93;6.30;;;-2.70;99.90;;;;;;5114323;28;20024;-75
2024/01/09 09:21:04;;;;;;;12.50;5.20;;;-2.60;99.90;;;;;;5114917;28;20118;-75
2024/01/09 09:23:30;;;;;;;16.13;6.47;;;-2.60;99.90;;;;;;5096007;28;20020;-75
2024/01/09 09:25:56;;;;;;;13.80;5.30;;;-2.50;99.90;;;;;;5096368;28;20020;-75
2024/01/09 09:28:22;;;;;;;16.00;5.87;;;-2.40;99.90;;;;;;5095988;28;20153;-75
2024/01/09 09:30:47;;;;;;;12.10;5.50;;;-2.40;99.90;;;;;;5096517;28;20359;-75
2024/01/09 09:33:13;;;;;;;20.40;6.30;;;-2.30;99.90;;;;;;5096239;28;20092;-74
2024/01/09 09:35:39;;;;;;;14.63;6.37;;;-2.20;99.90;;;;;;5095876;28;20652;-75
2024/01/09 09:38:05;;;;;;;14.13;6.03;;;-2.20;99.90;;;;;;5096325;28;20023;-75
2024/01/09 09:40:30;;;;;;;15.57;5.63;;;-2.20;99.90;;;;;;5113481;28;20380;-75
2024/01/09 09:42:59;;;;;;;14.97;5.80;;;-2.20;99.90;;;;;;5114088;28;20372;-75
2024/01/09 09:45:25;;;;;;;15.00;6.40;;;-2.10;99.90;;;;;;5113865;28;20521;-75
2024/01/09 09:47:53;;;;;;;15.60;6.10;;;-2.00;99.50;;;;;;5096146;28;20357;-75
2024/01/09 09:50:21;;;;;;;16.53;5.67;;;-2.10;99.80;;;;;;5114173;28;20031;-76
2024/01/09 09:52:47;;;;;;;16.07;6.23;;;-2.10;99.40;;;;;;5095866;28;20046;-75
2024/01/09 09:55:13;;;;;;;15.13;5.87;;;-2.10;99.50;;;;;;5114045;28;20110;-75
2024/01/09 09:57:39;;;;;;;13.47;6.60;;;-2.00;99.20;;;;;;5113594;28;20027;-75
2024/01/09 10:00:08;;;;;;;13.73;5.90;;;-2.10;99.20;;;;;;5095778;28;20028;-75
2024/01/09 10:02:36;;;;;;;13.27;5.80;;;-2.10;99.50;;;;;;5095251;28;20480;-75
2024/01/09 10:05:13;;;;;;;14.67;5.60;;;-2.10;99.90;;;;;;5113882;28;20028;-75
2024/01/09 10:07:43;;;;;;;17.43;6.07;;;-2.10;99.20;;;;;;5113766;28;20023;-75
2024/01/09 10:10:11;;;;;;;13.60;6.07;;;-2.10;99.80;;;;;;5114186;28;20054;-75
2024/01/09 10:12:37;;;;;;;17.77;6.33;;;-2.10;99.90;;;;;;5094610;28;20030;-75
2024/01/09 10:15:11;;;;;;;14.43;6.00;;;-2.00;99.70;;;;;;5095575;28;20020;-75
2024/01/09 10:17:38;;;;;;;15.97;6.47;;;-2.00;99.70;;;;;;5094997;28;20471;-75
2024/01/09 10:20:08;;;;;;;13.50;5.50;;;-2.00;99.90;;;;;;5095332;28;20026;-75
2024/01/09 10:22:35;;;;;;;17.07;6.40;;;-2.00;99.70;;;;;;5113108;28;20020;-75
2024/01/09 10:25:11;;;;;;;13.50;5.50;;;-2.00;98.80;;;;;;5095344;28;20031;-75
2024/01/09 10:27:38;;;;;;;14.83;5.93;;;-2.00;99.40;;;;;;5094566;28;20019;-75
2024/01/09 10:30:05;;;;;;;13.30;6.13;;;-1.90;98.90;;;;;;5095288;28;20459;-75
2024/01/09 10:32:36;;;;;;;13.37;6.20;;;-2.00;98.80;;;;;;5094793;28;20034;-75
2024/01/09 10:35:03;;;;;;;15.37;6.53;;;-1.90;99.10;;;;;;5095137;28;20020;-75
2024/01/09 10:37:33;;;;;;;15.87;6.13;;;-1.90;99.20;;;;;;5094725;28;20436;-75
2024/01/09 10:39:59;;;;;;;17.80;6.13;;;-1.90;99.30;;;;;;5113217;28;20040;-75
2024/01/09 10:42:27;;;;;;;15.07;6.37;;;-1.80;98.70;;;;;;5094742;28;20062;-76
2024/01/09 10:44:53;;;;;;;12.30;5.60;;;-1.80;98.70;;;;;;5095521;28;20372;-75
2024/01/09 10:47:20;;;;;;;13.30;6.07;;;-1.80;99.20;;;;;;5113661;28;20015;-75
2024/01/09 10:49:46;;;;;;;15.43;5.90;;;-1.80;99.10;;;;;;5094582;28;20372;-75
2024/01/09 10:52:16;;;;;;;16.17;6.27;;;-1.80;99.40;;;;;;5095327;28;20028;-75
2024/01/09 10:54:45;;;;;;;12.90;5.83;;;-1.70;98.80;;;;;;5112919;28;20154;-75
2024/01/09 10:57:13;;;;;;;14.27;5.37;;;-1.70;98.30;;;;;;5094885;28;20106;-75
2024/01/09 10:59:40;;;;;;;15.43;5.73;;;-1.60;99.10;;;;;;5094509;28;20027;-75
2024/01/09 11:02:17;;;;;;;13.07;5.93;;;-1.60;98.40;;;;;;5095006;28;20027;-75
2024/01/09 11:04:43;;;;;;;15.57;6.40;;;-1.70;98.30;;;;;;5112820;28;20452;-75
2024/01/09 11:07:14;;;;;;;14.57;6.93;;;-1.60;99.10;;;;;;5094914;28;20019;-75
2024/01/09 11:09:42;;;;;;;11.73;4.87;;;-1.60;99.00;;;;;;5094281;28;20047;-75
2024/01/09 11:12:13;;;;;;;14.33;6.10;;;-1.60;98.80;;;;;;5094759;28;20453;-75
2024/01/09 11:14:42;;;;;;;16.23;5.67;;;-1.50;99.10;;;;;;5094398;28;20475;-75
2024/01/09 11:17:09;;;;;;;12.87;5.77;;;-1.50;98.80;;;;;;5094768;28;20016;-75
2024/01/09 11:19:36;;;;;;;17.13;5.83;;;-1.40;98.50;;;;;;5094472;28;20023;-75
2024/01/09 11:22:37;;;;;;;12.47;5.53;;;-1.40;98.40;;;;;;5094738;28;20024;-75
2024/01/09 11:25:12;;;;;;;15.87;6.53;;;-1.40;98.30;;;;;;5098520;28;20441;-75
2024/01/09 11:27:43;;;;;;;15.60;7.13;;;-1.40;98.40;;;;;;5097951;28;20068;-75
2024/01/09 11:30:15;;;;;;;13.57;5.47;;;-1.40;98.60;;;;;;5098578;28;20051;-75
2024/01/09 11:32:40;;;;;;;13.30;6.18;;;-1.30;98.70;;;;;;5098064;28;20019;-75
2024/01/09 11:35:12;;;;;;;13.50;5.67;;;-1.30;98.20;;;;;;5116499;28;20395;-75
2024/01/09 11:37:39;;;;;;;14.95;5.68;;;-1.30;98.30;;;;;;5116220;28;20015;-75
2024/01/09 11:40:10;;;;;;;11.93;5.20;;;-1.30;98.40;;;;;;5116040;28;20108;-75
2024/01/09 11:42:37;;;;;;;13.93;6.00;;;-1.20;98.90;;;;;;5098100;28;20027;-75
2024/01/09 11:45:11;;;;;;;12.73;5.80;;;-1.20;99.10;;;;;;5098358;28;20024;-75
2024/01/09 11:47:42;;;;;;;17.40;6.60;;;-1.10;98.80;;;;;;5116463;28;20351;-75
2024/01/09 11:50:12;;;;;;;12.23;5.77;;;-1.10;99.00;;;;;;5098417;28;20064;-74
2024/01/09 11:52:39;;;;;;;15.67;5.83;;;-1.00;98.70;;;;;;5116042;28;20069;-75
2024/01/09 11:55:07;;;;;;;13.20;5.53;;;-1.00;98.00;;;;;;5098101;28;20020;-75
2024/01/09 11:57:34;;;;;;;13.27;5.77;;;-1.00;98.50;;;;;;5097660;28;20023;-76
2024/01/09 12:00:04;;;;;;;15.57;5.17;;;-1.00;98.40;;;;;;5098246;28;20043;-75
2024/01/09 12:02:31;;;;;;;15.17;5.63;;;-0.90;97.90;;;;;;5097448;28;20364;-76
2024/01/09 12:04:57;;;;;;;12.83;5.80;;;-0.90;97.70;;;;;;5116317;28;20093;-75
2024/01/09 12:07:23;;;;;;;12.53;5.63;;;-0.90;97.80;;;;;;5116140;28;20023;-75
2024/01/09 12:09:49;;;;;;;15.20;5.77;;;-0.80;98.50;;;;;;5097445;28;20028;-75
2024/01/09 12:12:24;;;;;;;15.53;5.90;;;-0.60;97.70;;;;;;5097368;28;20088;-75
2024/01/09 12:14:54;;;;;;;15.63;5.93;;;-0.50;97.60;;;;;;5097277;28;20027;-75
2024/01/09 12:17:23;;;;;;;14.47;6.13;;;-0.40;97.50;;;;;;5116104;28;20019;-75
2024/01/09 12:19:52;;;;;;;13.40;6.30;;;-0.30;97.10;;;;;;5097301;28;20283;-75
2024/01/09 12:22:19;;;;;;;12.10;5.60;;;-0.10;97.00;;;;;;5115787;28;20359;-75
2024/01/09 12:24:47;;;;;;;12.43;5.70;;;0.00;97.50;;;;;;5115050;28;20023;-75
2024/01/09 12:27:13;;;;;;;14.97;6.70;;;0.20;96.80;;;;;;5097720;28;20364;-75
2024/01/09 12:29:40;;;;;;;12.83;5.93;;;0.40;96.80;;;;;;5097151;28;20424;-75
2024/01/09 12:32:06;;;;;;;17.07;6.23;;;0.50;96.60;;;;;;5097541;28;20046;-75
2024/01/09 12:34:32;;;;;;;12.97;5.90;;;0.60;95.90;;;;;;5114914;28;20015;-75